createdAt,value
2019-04-24T00:00:20.536Z,12.41
2019-04-24T00:05:38.639Z,12.37
2019-04-24T00:08:05.814Z,12.40
2019-04-24T00:10:38.279Z,12.37
2019-04-24T00:13:14.313Z,12.42
2019-04-24T00:15:49.636Z,12.42
2019-04-24T00:20:54.936Z,12.57
2019-04-24T00:23:27.658Z,12.43
2019-04-24T00:25:51.533Z,12.58
2019-04-24T00:28:29.177Z,12.55
2019-04-24T00:31:02.290Z,12.52
2019-04-24T00:36:26.318Z,12.66
2019-04-24T00:38:54.878Z,12.61
2019-04-24T00:41:20.113Z,12.54
2019-04-24T00:43:58.133Z,12.43
2019-04-24T00:48:55.525Z,12.52
2019-04-24T00:51:34.444Z,12.40
2019-04-24T01:02:12.490Z,12.40
2019-04-24T01:07:36.050Z,12.27
2019-04-24T01:12:44.607Z,12.05
2019-04-24T01:17:39.117Z,12.20
2019-04-24T01:20:27.461Z,12.21
2019-04-24T01:28:02.706Z,12.05
2019-04-24T01:36:06.294Z,11.94
2019-04-24T01:38:42.533Z,11.91
2019-04-24T01:41:13.386Z,12.06
2019-04-24T01:43:42.250Z,11.98
2019-04-24T01:48:51.775Z,12.07
2019-04-24T01:51:23.822Z,12.10
2019-04-24T01:53:49.290Z,12.13
2019-04-24T01:56:25.735Z,12.16
2019-04-24T01:59:01.329Z,12.24
2019-04-24T02:01:30.502Z,12.23
2019-04-24T02:04:00.159Z,12.29
2019-04-24T02:06:23.843Z,12.36
2019-04-24T02:09:23.619Z,12.34
2019-04-24T02:12:06.601Z,12.37
2019-04-24T02:14:41.596Z,12.54
2019-04-24T02:17:10.339Z,12.70
2019-04-24T02:19:36.560Z,12.54
2019-04-24T02:22:18.149Z,12.39
2019-04-24T02:24:45.806Z,12.30
2019-04-24T02:27:18.154Z,12.17
2019-04-24T02:29:42.882Z,12.27
2019-04-24T02:37:54.323Z,12.28
2019-04-24T02:40:28.512Z,12.43
2019-04-24T02:43:07.263Z,12.57
2019-04-24T02:45:43.964Z,12.42
2019-04-24T02:48:24.639Z,12.44
2019-04-24T02:50:45.038Z,12.47
2019-04-24T02:53:17.266Z,12.42
2019-04-24T02:55:33.132Z,12.31
2019-04-24T02:58:47.921Z,12.33
2019-04-24T03:01:02.872Z,12.32
2019-04-24T03:03:43.725Z,12.27
2019-04-24T03:06:23.174Z,12.37
2019-04-24T03:11:16.404Z,12.24
2019-04-24T03:24:45.563Z,12.43
2019-04-24T03:27:26.051Z,12.52
2019-04-24T03:30:15.943Z,12.46
2019-04-24T03:35:33.598Z,12.42
2019-04-24T03:43:15.452Z,12.42
2019-04-24T03:48:14.197Z,12.41
2019-04-24T03:53:23.784Z,12.38
2019-04-24T03:56:14.070Z,12.39
2019-04-24T04:01:41.775Z,12.49
2019-04-24T04:04:13.000Z,12.52
2019-04-24T04:06:59.387Z,12.52
2019-04-24T04:09:27.137Z,12.42
2019-04-24T04:11:54.907Z,12.36
2019-04-24T04:14:34.885Z,12.27
2019-04-24T04:17:02.621Z,12.38
2019-04-24T04:19:39.713Z,12.53
2019-04-24T04:22:07.557Z,12.42
2019-04-24T04:27:31.442Z,12.53
2019-04-24T04:30:42.480Z,12.48
2019-04-24T04:36:11.127Z,12.44
2019-04-24T04:41:37.148Z,12.32
2019-04-24T04:44:06.003Z,12.43
2019-04-24T04:47:05.375Z,12.39
2019-04-24T04:49:47.957Z,12.41
2019-04-24T04:57:35.816Z,12.49
2019-04-24T04:59:55.703Z,12.46
2019-04-24T05:05:25.696Z,12.70
2019-04-24T05:07:38.367Z,12.65
2019-04-24T05:10:03.232Z,12.75
2019-04-24T05:12:47.111Z,12.69
2019-04-24T05:18:00.183Z,12.69
2019-04-24T05:20:24.538Z,12.71
2019-04-24T05:22:39.942Z,12.58
2019-04-24T05:25:39.366Z,12.46
2019-04-24T05:28:07.254Z,12.48
2019-04-24T05:30:38.838Z,12.50
2019-04-24T05:33:26.734Z,12.47
2019-04-24T05:39:02.476Z,12.35
2019-04-24T05:41:32.495Z,12.34
2019-04-24T05:44:08.173Z,12.42
2019-04-24T05:49:06.941Z,12.38
2019-04-24T05:54:35.708Z,12.36
2019-04-24T05:57:44.080Z,12.38
2019-04-24T05:59:50.057Z,12.44
2019-04-24T06:05:11.870Z,12.42
2019-04-24T06:13:37.553Z,12.52
2019-04-24T06:16:22.799Z,12.63
2019-04-24T06:21:33.508Z,12.69
2019-04-24T06:26:42.075Z,12.70
2019-04-24T06:32:14.420Z,12.96
2019-04-24T06:34:28.914Z,13.04
2019-04-24T06:40:09.870Z,12.94
2019-04-24T06:45:36.212Z,13.10
2019-04-24T06:48:03.967Z,13.12
2019-04-24T06:50:52.298Z,13.00
2019-04-24T06:55:41.923Z,13.28
2019-04-24T07:01:14.056Z,13.28
2019-04-24T07:09:44.030Z,13.39
2019-04-24T07:12:25.888Z,13.33
2019-04-24T07:15:07.345Z,13.27
2019-04-24T07:20:19.685Z,13.23
2019-04-24T07:23:04.380Z,13.24
2019-04-24T07:25:56.245Z,13.23
2019-04-24T07:31:09.807Z,13.46
2019-04-24T07:33:48.800Z,13.55
2019-04-24T07:36:42.629Z,13.60
2019-04-24T07:39:10.719Z,13.59
2019-04-24T07:46:47.570Z,13.58
2019-04-24T07:49:18.536Z,13.70
2019-04-24T07:52:06.491Z,13.85
2019-04-24T07:54:33.120Z,13.93
2019-04-24T08:05:16.458Z,14.49
2019-04-24T08:07:54.742Z,14.67
2019-04-24T08:10:42.131Z,14.88
2019-04-24T08:16:04.610Z,14.88
2019-04-24T08:21:18.199Z,15.17
2019-04-24T08:23:50.119Z,15.11
2019-04-24T08:28:52.321Z,15.29
2019-04-24T08:36:39.377Z,15.79
2019-04-24T08:42:40.839Z,15.81
2019-04-24T08:45:11.195Z,16.15
2019-04-24T08:55:34.457Z,16.09
2019-04-24T09:03:31.659Z,16.18
2019-04-24T09:08:48.968Z,16.59
2019-04-24T09:11:41.472Z,16.02
2019-04-24T09:19:27.376Z,16.23
2019-04-24T09:21:48.227Z,16.14
2019-04-24T09:34:56.607Z,16.62
2019-04-24T09:37:55.488Z,16.61
2019-04-24T09:41:06.279Z,16.62
2019-04-24T09:43:20.490Z,16.82
2019-04-24T09:45:48.281Z,16.74
2019-04-24T09:48:45.205Z,16.75
2019-04-24T09:51:02.454Z,16.80
2019-04-24T09:56:01.157Z,17.14
2019-04-24T10:01:33.250Z,17.43
2019-04-24T10:04:21.932Z,17.46
2019-04-24T10:07:08.158Z,17.62
2019-04-24T10:09:17.394Z,17.71
2019-04-24T10:14:41.270Z,18.02
2019-04-24T10:17:07.409Z,18.11
2019-04-24T10:22:47.877Z,18.32
2019-04-24T10:28:08.463Z,18.54
2019-04-24T10:33:35.718Z,18.78
2019-04-24T10:36:26.438Z,18.97
2019-04-24T10:39:16.311Z,18.99
2019-04-24T10:50:51.013Z,19.48
2019-04-24T11:07:09.004Z,19.74
2019-04-24T11:10:00.114Z,19.78
2019-04-24T11:12:17.169Z,19.82
2019-04-24T11:14:55.510Z,19.94
2019-04-24T11:17:46.625Z,19.87
2019-04-24T11:23:35.453Z,20.12
2019-04-24T11:29:07.330Z,20.24
2019-04-24T11:32:01.470Z,20.26
2019-04-24T11:35:02.823Z,20.38
2019-04-24T11:37:31.430Z,20.59
2019-04-24T11:40:36.923Z,20.67
2019-04-24T11:45:48.026Z,20.92
2019-04-24T11:48:58.006Z,21.00
2019-04-24T11:51:42.666Z,21.08
2019-04-24T11:56:58.120Z,21.48
2019-04-24T11:59:07.768Z,21.55
2019-04-24T12:05:02.963Z,21.75
2019-04-24T12:07:37.751Z,21.88
2019-04-24T12:10:12.257Z,22.13
2019-04-24T12:13:02.550Z,22.35
2019-04-24T12:18:09.819Z,22.80
2019-04-24T12:21:09.945Z,22.99
2019-04-24T12:23:45.338Z,23.14
2019-04-24T12:26:09.138Z,23.42
2019-04-24T12:28:51.158Z,23.73
2019-04-24T12:31:10.982Z,24.48
2019-04-24T12:36:26.641Z,27.77
2019-04-24T12:39:02.626Z,28.52
2019-04-24T12:41:32.595Z,28.13
2019-04-24T12:49:45.527Z,29.65
2019-04-24T12:52:03.393Z,31.16
2019-04-24T12:54:46.970Z,31.54
2019-04-24T13:00:17.418Z,31.62
2019-04-24T13:03:02.204Z,31.60
2019-04-24T13:08:10.906Z,31.73
2019-04-24T13:10:53.414Z,32.76
2019-04-24T13:13:24.566Z,33.73
2019-04-24T13:18:36.976Z,33.12
2019-04-24T13:20:37.402Z,33.48
2019-04-24T13:23:20.542Z,33.39
2019-04-24T13:26:22.774Z,32.92
2019-04-24T13:32:02.073Z,34.15
2019-04-24T13:34:31.373Z,34.83
2019-04-24T13:37:03.359Z,34.21
2019-04-24T13:39:41.580Z,33.75
2019-04-24T13:42:18.054Z,34.96
2019-04-24T13:44:35.082Z,34.17
2019-04-24T13:47:07.786Z,33.81
2019-04-24T13:52:36.965Z,34.65
2019-04-24T13:54:48.195Z,34.10
2019-04-24T13:57:15.306Z,34.63
2019-04-24T13:59:56.713Z,35.37
2019-04-24T14:02:25.004Z,35.69
2019-04-24T14:04:54.794Z,34.96
2019-04-24T14:07:38.053Z,34.38
2019-04-24T14:15:07.494Z,34.43
2019-04-24T14:17:43.743Z,36.02
2019-04-24T14:23:11.799Z,35.71
2019-04-24T14:25:52.291Z,34.90
2019-04-24T14:30:57.950Z,34.12
2019-04-24T14:36:02.435Z,35.10
2019-04-24T14:41:00.207Z,35.23
2019-04-24T14:43:58.843Z,34.97
2019-04-24T14:46:34.070Z,35.40
2019-04-24T14:48:41.520Z,34.02
2019-04-24T14:51:21.413Z,33.44
2019-04-24T14:53:57.185Z,34.60
2019-04-24T14:56:25.689Z,33.68
2019-04-24T15:01:31.831Z,35.05
2019-04-24T15:03:59.533Z,33.77
2019-04-24T15:06:32.412Z,33.83
2019-04-24T15:09:11.883Z,33.79
2019-04-24T15:11:51.439Z,32.16
2019-04-24T15:14:23.153Z,32.81
2019-04-24T15:17:14.285Z,32.76
2019-04-24T15:19:44.296Z,33.67
2019-04-24T15:22:10.910Z,32.82
2019-04-24T15:32:18.199Z,34.12
2019-04-24T15:34:55.576Z,32.76
2019-04-24T15:37:22.753Z,33.11
2019-04-24T15:40:16.242Z,33.30
2019-04-24T15:42:15.523Z,32.08
2019-04-24T15:44:58.523Z,32.05
2019-04-24T15:47:42.081Z,32.94
2019-04-24T15:52:02.716Z,32.35
2019-04-24T15:54:33.594Z,32.45
2019-04-24T15:57:06.961Z,32.73
2019-04-24T16:00:20.857Z,32.33
2019-04-24T16:03:23.557Z,30.93
2019-04-24T16:05:08.878Z,30.74
2019-04-24T16:07:50.999Z,31.49
2019-04-24T16:10:29.174Z,30.89
2019-04-24T16:13:02.796Z,30.91
2019-04-24T16:16:09.252Z,31.76
2019-04-24T16:19:01.385Z,32.10
2019-04-24T16:21:19.707Z,31.74
2019-04-24T16:26:16.177Z,31.20
2019-04-24T16:28:52.706Z,31.21
2019-04-24T16:33:58.066Z,30.83
2019-04-24T16:44:31.361Z,30.48
2019-04-24T16:52:12.297Z,29.17
2019-04-24T16:54:23.621Z,29.86
2019-04-24T16:56:56.859Z,29.67
2019-04-24T16:59:17.965Z,29.41
2019-04-24T17:04:43.604Z,29.26
2019-04-24T17:09:56.254Z,28.77
2019-04-24T17:12:23.877Z,28.24
2019-04-24T17:20:08.191Z,27.38
2019-04-24T17:22:42.882Z,26.89
2019-04-24T17:27:40.715Z,26.21
2019-04-24T17:30:23.477Z,25.27
2019-04-24T17:35:26.834Z,24.60
2019-04-24T17:37:23.967Z,24.48
2019-04-24T17:40:06.213Z,24.37
2019-04-24T17:42:53.662Z,24.22
2019-04-24T17:45:35.942Z,23.99
2019-04-24T17:50:47.252Z,23.10
2019-04-24T17:55:50.841Z,22.54
2019-04-24T17:57:55.904Z,22.38
2019-04-24T18:00:41.969Z,22.37
2019-04-24T18:03:16.174Z,21.76
2019-04-24T18:05:46.039Z,21.78
2019-04-24T18:08:16.597Z,21.52
2019-04-24T18:10:47.166Z,21.64
2019-04-24T18:13:17.663Z,21.76
2019-04-24T18:15:48.197Z,21.57
2019-04-24T18:18:18.734Z,21.45
2019-04-24T18:20:49.318Z,21.31
2019-04-24T18:23:20.032Z,21.17
2019-04-24T18:26:12.200Z,21.14
2019-04-24T18:28:43.609Z,21.07
2019-04-24T18:31:14.385Z,20.88
2019-04-24T18:33:45.127Z,20.83
2019-04-24T18:36:16.005Z,20.61
2019-04-24T18:38:46.524Z,20.50
2019-04-24T18:41:17.119Z,20.33
2019-04-24T18:43:47.684Z,20.15
2019-04-24T18:46:18.206Z,20.25
2019-04-24T18:48:48.738Z,20.29
2019-04-24T18:51:19.243Z,20.13
2019-04-24T18:53:49.739Z,19.97
2019-04-24T18:56:21.349Z,19.78
2019-04-24T18:58:52.115Z,19.98
2019-04-24T19:01:22.684Z,19.95
2019-04-24T19:03:53.223Z,19.74
2019-04-24T19:06:31.077Z,19.75
2019-04-24T19:08:55.999Z,19.48
2019-04-24T19:11:26.529Z,19.63
2019-04-24T19:13:57.072Z,19.67
2019-04-24T19:16:27.681Z,19.65
2019-04-24T19:18:58.197Z,19.48
2019-04-24T19:21:28.722Z,19.38
2019-04-24T19:23:59.426Z,19.29
2019-04-24T19:26:31.483Z,19.33
2019-04-24T19:29:02.098Z,19.21
2019-04-24T19:31:32.635Z,19.27
2019-04-24T19:34:03.336Z,19.29
2019-04-24T19:36:33.810Z,19.13
2019-04-24T19:39:05.248Z,19.16
2019-04-24T19:41:35.789Z,18.97
2019-04-24T19:44:06.306Z,18.98
2019-04-24T19:46:36.788Z,19.08
2019-04-24T19:49:07.355Z,19.02
2019-04-24T19:51:37.888Z,18.93
2019-04-24T19:54:08.440Z,18.98
2019-04-24T19:56:39.035Z,18.88
2019-04-24T19:59:11.355Z,18.83
2019-04-24T20:01:42.353Z,18.83
2019-04-24T20:04:14.337Z,18.81
2019-04-24T20:06:45.050Z,18.80
2019-04-24T20:09:43.696Z,18.76
2019-04-24T20:12:14.839Z,18.67
2019-04-24T20:14:45.410Z,18.69
2019-04-24T20:17:16.729Z,18.76
2019-04-24T20:19:47.359Z,18.71
2019-04-24T20:22:17.875Z,18.61
2019-04-24T20:24:48.501Z,18.52
2019-04-24T20:27:19.971Z,18.70
2019-04-24T20:29:50.563Z,18.63
2019-04-24T20:32:22.188Z,18.76
2019-04-24T20:34:53.403Z,18.59
2019-04-24T20:37:24.724Z,18.56
2019-04-24T20:39:55.288Z,18.55
2019-04-24T20:42:25.759Z,18.63
2019-04-24T20:44:56.247Z,18.49
2019-04-24T20:47:26.874Z,18.41
2019-04-24T20:49:57.399Z,18.46
2019-04-24T20:52:27.888Z,18.48
2019-04-24T20:54:58.465Z,18.47
2019-04-24T20:57:28.983Z,18.52
2019-04-24T20:59:59.487Z,18.62
2019-04-24T21:02:31.669Z,18.56
2019-04-24T21:05:02.157Z,18.51
2019-04-24T21:07:54.620Z,18.51
2019-04-24T21:10:29.093Z,18.56
2019-04-24T21:12:59.640Z,18.59
2019-04-24T21:15:31.148Z,18.29
2019-04-24T21:18:02.381Z,18.08
2019-04-24T21:20:33.479Z,18.19
2019-04-24T21:23:04.065Z,18.06
2019-04-24T21:25:34.521Z,18.02
2019-04-24T21:28:05.168Z,17.82
2019-04-24T21:30:35.660Z,17.78
2019-04-24T21:33:06.139Z,17.61
2019-04-24T21:35:36.641Z,17.72
2019-04-24T21:38:07.467Z,17.59
2019-04-24T21:40:37.933Z,17.46
2019-04-24T21:43:08.424Z,17.55
2019-04-24T21:45:38.881Z,17.62
2019-04-24T21:48:09.414Z,17.61
2019-04-24T21:50:41.191Z,17.53
2019-04-24T21:53:11.795Z,17.60
2019-04-24T21:55:42.246Z,17.51
2019-04-24T21:58:12.727Z,17.49
2019-04-24T22:01:02.397Z,17.49
2019-04-24T22:03:55.294Z,17.64
2019-04-24T22:06:34.817Z,17.60
2019-04-24T22:09:09.269Z,17.41
2019-04-24T22:11:39.728Z,17.50
2019-04-24T22:14:13.516Z,17.31
2019-04-24T22:16:43.356Z,17.13
2019-04-24T22:19:13.898Z,17.20
2019-04-24T22:21:51.723Z,17.23
2019-04-24T22:24:37.648Z,17.40
2019-04-24T22:27:15.220Z,17.20
2019-04-24T22:29:45.852Z,16.95
2019-04-24T22:32:32.624Z,16.91
2019-04-24T22:35:12.407Z,16.97
2019-04-24T22:37:42.975Z,16.92
2019-04-24T22:40:28.234Z,16.90
2019-04-24T22:42:58.774Z,16.84
2019-04-24T22:45:29.775Z,16.67
2019-04-24T22:48:02.010Z,16.60
2019-04-24T22:50:32.788Z,16.65
2019-04-24T22:53:03.568Z,16.80
2019-04-24T22:55:34.540Z,16.76
2019-04-24T22:58:06.071Z,16.72
2019-04-24T23:00:37.371Z,16.74
2019-04-24T23:03:07.933Z,16.66
2019-04-24T23:05:39.117Z,16.65
2019-04-24T23:08:10.097Z,16.65
2019-04-24T23:10:42.843Z,16.58
2019-04-24T23:13:13.404Z,16.68
2019-04-24T23:15:44.163Z,16.79
2019-04-24T23:18:15.331Z,16.86
2019-04-24T23:21:01.561Z,16.88
2019-04-24T23:23:50.913Z,16.93
2019-04-24T23:26:40.581Z,16.90
2019-04-24T23:29:18.154Z,17.08
2019-04-24T23:32:10.406Z,17.11
2019-04-24T23:34:42.555Z,17.08
2019-04-24T23:37:13.135Z,17.12
2019-04-24T23:39:44.427Z,17.12
2019-04-24T23:42:14.976Z,17.15
2019-04-24T23:44:45.446Z,17.16
2019-04-24T23:47:15.996Z,17.18
2019-04-24T23:49:46.457Z,17.16
2019-04-24T23:52:16.923Z,17.19
2019-04-24T23:55:03.915Z,17.13
2019-04-24T23:57:19.603Z,17.18
2019-04-24T23:59:51.451Z,17.21
